Time;durP1;ratioP1;P1;durP2;ratioP2;P2;SDS_P1;SDS_P2;PMS_P1;PMS_P2;Temp;Humidity;BMP_temperature;BMP_pressure;BME280_temperature;BME280_humidity;BME280_pressure;Samples;Min_cycle;Max_cycle;Signal;HPM_P1;HPM_P2
2024/03/12 00:00:16;;;;;;;3.53;2.10;;;17.70;83.00;;;;;;5072615;28;20024;-44
2024/03/12 00:02:45;;;;;;;2.50;1.90;;;17.80;83.00;;;;;;5073811;28;20031;-44
2024/03/12 00:05:18;;;;;;;4.13;2.30;;;17.80;83.00;;;;;;5073102;28;20162;-44
2024/03/12 00:07:44;;;;;;;3.28;2.05;;;17.80;83.00;;;;;;5071328;28;20487;-43
2024/03/12 00:10:15;;;;;;;3.22;1.95;;;17.80;83.00;;;;;;5074211;28;20107;-44
2024/03/12 00:12:43;;;;;;;3.47;2.15;;;17.70;82.90;;;;;;5071638;28;20075;-44
2024/03/12 00:15:09;;;;;;;2.67;1.90;;;17.70;82.80;;;;;;5071540;28;20039;-45
2024/03/12 00:17:36;;;;;;;2.88;1.80;;;17.70;82.80;;;;;;5072528;28;20470;-44
2024/03/12 00:20:17;;;;;;;3.83;1.80;;;17.70;82.80;;;;;;5071616;28;20027;-45
2024/03/12 00:22:47;;;;;;;4.18;1.90;;;17.70;82.90;;;;;;5071872;28;20036;-44
2024/03/12 00:25:16;;;;;;;3.25;2.08;;;17.70;82.80;;;;;;5073706;28;20074;-45
2024/03/12 00:27:43;;;;;;;2.95;2.25;;;17.70;82.80;;;;;;5070831;28;20549;-44
2024/03/12 00:30:09;;;;;;;3.53;2.10;;;17.70;82.80;;;;;;5072367;28;20029;-41
2024/03/12 00:32:38;;;;;;;4.00;2.08;;;17.70;82.80;;;;;;5072082;28;20076;-45
2024/03/12 00:35:05;;;;;;;3.38;2.13;;;17.70;82.80;;;;;;5072186;28;20025;-44
2024/03/12 00:37:33;;;;;;;3.13;1.88;;;17.70;82.80;;;;;;5071682;28;20032;-44
2024/03/12 00:39:59;;;;;;;3.50;2.08;;;17.70;82.80;;;;;;5070651;28;20028;-45
2024/03/12 00:42:26;;;;;;;2.42;1.90;;;17.60;82.70;;;;;;5071405;28;20390;-45
2024/03/12 00:44:52;;;;;;;2.92;1.92;;;17.60;82.80;;;;;;5071602;28;20111;-44
2024/03/12 00:47:17;;;;;;;2.90;1.90;;;17.60;82.70;;;;;;5070869;28;20107;-44
2024/03/12 00:49:46;;;;;;;2.88;1.70;;;17.60;82.70;;;;;;5071704;28;20036;-45
2024/03/12 00:52:11;;;;;;;4.25;2.05;;;17.60;82.80;;;;;;5072937;28;20027;-44
2024/03/12 00:54:37;;;;;;;2.60;1.90;;;17.60;82.70;;;;;;5071891;28;20480;-45
2024/03/12 00:57:05;;;;;;;4.28;2.47;;;17.60;82.70;;;;;;5070704;28;20029;-45
2024/03/12 00:59:31;;;;;;;2.03;1.80;;;17.60;82.70;;;;;;5071450;28;20017;-44
2024/03/12 01:01:57;;;;;;;2.88;2.17;;;17.60;82.80;;;;;;5070995;28;20561;-44
2024/03/12 01:04:23;;;;;;;3.47;1.95;;;17.60;82.80;;;;;;5071448;28;20159;-42
2024/03/12 01:06:49;;;;;;;3.92;2.10;;;17.60;82.70;;;;;;5070967;28;20021;-44
2024/03/12 01:09:17;;;;;;;3.47;2.17;;;17.60;82.70;;;;;;5074726;28;20036;-45
2024/03/12 01:11:46;;;;;;;2.35;1.75;;;17.60;82.70;;;;;;5075762;28;20397;-44
2024/03/12 01:14:12;;;;;;;2.50;1.75;;;17.60;82.70;;;;;;5076196;28;20490;-44
2024/03/12 01:16:38;;;;;;;2.25;1.70;;;17.60;82.60;;;;;;5075199;28;20036;-44
2024/03/12 01:19:07;;;;;;;2.35;1.75;;;17.60;82.60;;;;;;5075292;28;20066;-44
2024/03/12 01:21:34;;;;;;;2.88;1.92;;;17.60;82.50;;;;;;5075172;28;20108;-46
2024/03/12 01:24:01;;;;;;;3.20;1.67;;;17.60;82.50;;;;;;5074722;28;20024;-44
2024/03/12 01:26:27;;;;;;;2.10;1.38;;;17.60;82.50;;;;;;5074678;28;20033;-45
2024/03/12 01:28:53;;;;;;;2.67;1.60;;;17.60;82.50;;;;;;5075085;28;20046;-44
2024/03/12 01:31:21;;;;;;;2.50;1.60;;;17.60;82.50;;;;;;5075779;28;20028;-44
2024/03/12 01:33:47;;;;;;;1.85;1.60;;;17.60;82.50;;;;;;5076432;28;20024;-45
2024/03/12 01:36:20;;;;;;;2.00;1.45;;;17.60;82.50;;;;;;5075839;28;20040;-44
2024/03/12 01:38:54;;;;;;;3.20;1.40;;;17.60;82.40;;;;;;5074917;28;20024;-44
2024/03/12 01:41:20;;;;;;;2.63;1.42;;;17.60;82.40;;;;;;5073693;28;20394;-45
2024/03/12 01:43:55;;;;;;;2.42;1.30;;;17.60;82.40;;;;;;5075229;28;20067;-45
2024/03/12 01:46:22;;;;;;;3.00;1.60;;;17.60;82.40;;;;;;5074653;28;20056;-45
2024/03/12 01:48:48;;;;;;;2.63;1.55;;;17.50;82.30;;;;;;5074336;28;20028;-45
2024/03/12 01:51:16;;;;;;;2.63;1.55;;;17.50;82.30;;;;;;5074189;28;20024;-45
2024/03/12 01:53:42;;;;;;;3.90;2.10;;;17.60;82.30;;;;;;5075392;28;20069;-45
2024/03/12 01:56:07;;;;;;;3.47;2.25;;;17.50;82.30;;;;;;5074335;28;20494;-44
2024/03/12 01:58:33;;;;;;;5.10;2.60;;;17.50;82.30;;;;;;5074491;28;20036;-43
2024/03/12 02:00:58;;;;;;;5.68;2.83;;;17.50;82.30;;;;;;5075972;28;20139;-43
2024/03/12 02:03:24;;;;;;;3.67;2.25;;;17.50;82.30;;;;;;5075158;28;20017;-45
2024/03/12 02:05:51;;;;;;;3.15;2.03;;;17.50;82.30;;;;;;5074953;28;20411;-44
2024/03/12 02:08:17;;;;;;;3.20;2.08;;;17.50;82.30;;;;;;5074782;28;20027;-44
2024/03/12 02:10:43;;;;;;;3.72;2.05;;;17.50;82.40;;;;;;5073577;28;20389;-44
2024/03/12 02:13:09;;;;;;;4.22;2.40;;;17.50;82.40;;;;;;5074987;28;20021;-44
2024/03/12 02:15:34;;;;;;;2.90;1.88;;;17.50;82.40;;;;;;5073728;28;20021;-45
2024/03/12 02:18:00;;;;;;;2.58;1.65;;;17.50;82.40;;;;;;5074080;28;20023;-45
2024/03/12 02:20:27;;;;;;;3.03;2.08;;;17.50;82.30;;;;;;5072458;28;20316;-45
2024/03/12 02:22:55;;;;;;;2.83;1.80;;;17.50;82.30;;;;;;5074293;28;20020;-44
2024/03/12 02:25:20;;;;;;;2.85;1.67;;;17.50;82.20;;;;;;5075361;28;20044;-45
2024/03/12 02:27:46;;;;;;;2.95;1.95;;;17.50;82.20;;;;;;5073416;28;20064;-44
2024/03/12 02:30:12;;;;;;;2.83;1.73;;;17.50;82.20;;;;;;5074372;28;20021;-44
2024/03/12 02:32:40;;;;;;;2.78;1.80;;;17.50;82.10;;;;;;5073573;28;20398;-45
2024/03/12 02:35:11;;;;;;;4.55;2.08;;;17.50;82.80;;;;;;5073928;28;20021;-44
2024/03/12 02:37:40;;;;;;;2.58;1.65;;;17.50;82.00;;;;;;5073076;28;20056;-45
2024/03/12 02:40:09;;;;;;;3.92;1.65;;;17.50;82.00;;;;;;5074654;28;20032;-44
2024/03/12 02:42:36;;;;;;;2.83;1.73;;;17.50;81.90;;;;;;5074276;28;20020;-44
2024/03/12 02:45:01;;;;;;;2.30;1.45;;;17.50;81.90;;;;;;5074103;28;20025;-44
2024/03/12 02:47:27;;;;;;;2.53;1.50;;;17.50;81.90;;;;;;5073012;28;20024;-44
2024/03/12 02:49:53;;;;;;;2.85;1.83;;;17.50;81.90;;;;;;5073378;28;20518;-45
2024/03/12 02:52:20;;;;;;;3.08;1.75;;;17.50;81.90;;;;;;5073727;28;20105;-45
2024/03/12 02:54:45;;;;;;;3.65;1.95;;;17.50;81.90;;;;;;5074039;28;20082;-44
2024/03/12 02:57:11;;;;;;;3.13;1.70;;;17.50;81.90;;;;;;5074687;28;20107;-44
2024/03/12 02:59:38;;;;;;;2.60;1.70;;;17.50;81.80;;;;;;5074614;28;20032;-45
2024/03/12 03:02:04;;;;;;;2.67;1.60;;;17.50;81.80;;;;;;5074954;28;20032;-44
2024/03/12 03:04:32;;;;;;;3.58;2.00;;;17.40;81.70;;;;;;5073405;28;20036;-43
2024/03/12 03:07:00;;;;;;;2.80;1.77;;;17.40;81.80;;;;;;5072361;28;20048;-44
2024/03/12 03:09:26;;;;;;;3.58;1.90;;;17.50;81.80;;;;;;5072385;28;20025;-45
2024/03/12 03:11:53;;;;;;;3.53;2.35;;;17.40;81.80;;;;;;5073386;28;20540;-44
2024/03/12 03:14:18;;;;;;;3.13;2.00;;;17.40;81.80;;;;;;5072730;28;20024;-44
2024/03/12 03:16:44;;;;;;;3.47;1.92;;;17.40;81.80;;;;;;5072544;28;20447;-43
2024/03/12 03:19:10;;;;;;;3.22;1.90;;;17.40;81.90;;;;;;5073023;28;20077;-43
2024/03/12 03:21:36;;;;;;;3.10;1.73;;;17.40;81.90;;;;;;5072963;28;20482;-43
2024/03/12 03:24:02;;;;;;;2.50;1.70;;;17.40;82.00;;;;;;5072753;28;20024;-44
2024/03/12 03:26:27;;;;;;;2.72;1.65;;;17.40;82.00;;;;;;5072318;28;20067;-43
2024/03/12 03:28:53;;;;;;;3.17;1.42;;;17.40;82.00;;;;;;5072033;28;20474;-43
2024/03/12 03:31:18;;;;;;;2.70;1.67;;;17.40;82.00;;;;;;5073108;28;20029;-44
2024/03/12 03:33:47;;;;;;;3.47;1.92;;;17.40;82.00;;;;;;5073315;28;20020;-42
2024/03/12 03:36:14;;;;;;;3.30;1.73;;;17.40;81.90;;;;;;5073493;28;20034;-42
2024/03/12 03:38:42;;;;;;;3.17;1.75;;;17.40;81.90;;;;;;5072451;28;20036;-43
2024/03/12 03:41:09;;;;;;;2.80;1.52;;;17.40;81.90;;;;;;5072191;28;20029;-43
2024/03/12 03:43:35;;;;;;;2.63;1.80;;;17.40;81.80;;;;;;5072387;28;20444;-42
2024/03/12 03:46:01;;;;;;;3.28;1.80;;;17.40;81.80;;;;;;5072821;28;20033;-41
2024/03/12 03:48:27;;;;;;;3.05;1.80;;;17.40;81.80;;;;;;5072745;28;20400;-44
2024/03/12 03:50:52;;;;;;;2.47;1.50;;;17.40;81.80;;;;;;5072331;28;20100;-44
2024/03/12 03:53:18;;;;;;;3.25;1.73;;;17.40;81.80;;;;;;5072708;28;20147;-44
2024/03/12 03:55:45;;;;;;;3.08;1.70;;;17.40;81.80;;;;;;5072597;28;20016;-44
2024/03/12 03:58:10;;;;;;;3.13;1.60;;;17.40;81.80;;;;;;5071576;28;20025;-44
2024/03/12 04:00:37;;;;;;;3.38;1.55;;;17.40;81.80;;;;;;5072282;28;20031;-43
2024/03/12 04:03:06;;;;;;;2.95;1.52;;;17.40;81.80;;;;;;5072013;28;20025;-43
2024/03/12 04:05:35;;;;;;;2.97;1.60;;;17.40;81.80;;;;;;5072255;28;20784;-44
2024/03/12 04:08:01;;;;;;;2.15;1.33;;;17.40;81.80;;;;;;5071214;28;20039;-43
2024/03/12 04:10:27;;;;;;;3.42;1.63;;;17.40;81.80;;;;;;5073195;28;20016;-43
2024/03/12 04:12:55;;;;;;;2.95;1.63;;;17.40;81.90;;;;;;5071823;28;20033;-43
2024/03/12 04:15:22;;;;;;;3.53;1.73;;;17.40;81.90;;;;;;5073501;28;20047;-44
2024/03/12 04:17:48;;;;;;;2.55;1.42;;;17.40;81.90;;;;;;5072594;28;20115;-44
2024/03/12 04:20:16;;;;;;;2.33;1.63;;;17.30;81.90;;;;;;5072356;28;20032;-44
2024/03/12 04:22:43;;;;;;;2.28;1.42;;;17.30;81.90;;;;;;5071938;28;20039;-43
2024/03/12 04:25:09;;;;;;;2.45;1.63;;;17.40;82.00;;;;;;5072427;28;20064;-44
2024/03/12 04:27:36;;;;;;;2.58;1.50;;;17.30;82.00;;;;;;5070837;28;20286;-42
2024/03/12 04:30:06;;;;;;;2.63;1.50;;;17.30;82.00;;;;;;5071041;28;20028;-43
2024/03/12 04:32:32;;;;;;;2.47;1.40;;;17.30;82.00;;;;;;5071094;28;20033;-43
2024/03/12 04:34:57;;;;;;;2.45;1.40;;;17.30;82.00;;;;;;5071442;28;20375;-43
2024/03/12 04:37:23;;;;;;;2.75;1.52;;;17.30;82.00;;;;;;5070969;28;20028;-43
2024/03/12 04:39:49;;;;;;;1.73;1.27;;;17.30;82.00;;;;;;5070197;28;20126;-44
2024/03/12 04:42:14;;;;;;;3.30;1.75;;;17.30;82.00;;;;;;5071594;28;20035;-44
2024/03/12 04:44:42;;;;;;;2.83;1.20;;;17.30;82.00;;;;;;5071374;28;20150;-44
2024/03/12 04:47:09;;;;;;;3.65;1.70;;;17.30;82.10;;;;;;5071924;28;20073;-44
2024/03/12 04:49:37;;;;;;;2.63;1.45;;;17.30;82.10;;;;;;5071007;28;20470;-44
2024/03/12 04:52:03;;;;;;;2.10;1.35;;;17.30;82.30;;;;;;5072285;28;20031;-44
2024/03/12 04:54:29;;;;;;;2.53;1.33;;;17.30;82.30;;;;;;5072485;28;20395;-44
2024/03/12 04:56:56;;;;;;;1.90;1.30;;;17.30;82.30;;;;;;5072645;28;20399;-43
2024/03/12 04:59:24;;;;;;;2.13;1.30;;;17.30;82.30;;;;;;5070666;28;20021;-42
2024/03/12 05:01:49;;;;;;;2.33;1.48;;;17.20;82.30;;;;;;5072424;28;20035;-43
2024/03/12 05:04:16;;;;;;;2.33;1.30;;;17.30;82.40;;;;;;5072030;28;20083;-43
2024/03/12 05:06:42;;;;;;;2.15;1.20;;;17.30;82.50;;;;;;5071315;28;20078;-44
2024/03/12 05:09:08;;;;;;;2.10;1.30;;;17.30;82.50;;;;;;5072569;28;20056;-40
2024/03/12 05:11:36;;;;;;;2.65;1.40;;;17.30;82.60;;;;;;5071677;28;20268;-44
2024/03/12 05:14:02;;;;;;;1.83;1.50;;;17.20;82.60;;;;;;5070989;28;20027;-43
2024/03/12 05:16:28;;;;;;;2.22;1.30;;;17.20;82.60;;;;;;5072103;28;20394;-44
2024/03/12 05:18:54;;;;;;;3.45;1.58;;;17.20;82.70;;;;;;5070879;28;20028;-44
2024/03/12 05:21:21;;;;;;;1.98;1.10;;;17.20;82.80;;;;;;5071145;28;20028;-44
2024/03/12 05:23:48;;;;;;;1.65;1.08;;;17.20;82.80;;;;;;5072520;28;20045;-43
2024/03/12 05:26:17;;;;;;;1.02;0.90;;;17.20;82.80;;;;;;5070679;28;20039;-42
2024/03/12 05:28:43;;;;;;;2.17;1.40;;;17.20;82.80;;;;;;5070660;28;20028;-44
2024/03/12 05:31:09;;;;;;;1.95;1.30;;;17.20;82.80;;;;;;5072924;28;20490;-44
2024/03/12 05:33:38;;;;;;;1.95;1.17;;;17.20;82.80;;;;;;5071844;28;20028;-43
2024/03/12 05:36:09;;;;;;;2.00;1.27;;;17.20;82.90;;;;;;5070517;28;20036;-43
2024/03/12 05:38:44;;;;;;;2.13;1.15;;;17.20;83.00;;;;;;5052580;28;20075;-42
2024/03/12 05:49:09;;;;;;;2.45;1.20;;;17.20;83.00;;;;;;5070524;28;19912;-44
2024/03/12 05:51:36;;;;;;;2.70;1.30;;;17.20;83.10;;;;;;5071902;28;20028;-44
2024/03/12 05:54:01;;;;;;;1.75;1.10;;;17.20;83.10;;;;;;5072101;28;20029;-40
2024/03/12 05:56:29;;;;;;;1.90;1.23;;;17.20;83.10;;;;;;5073891;28;20479;-43
2024/03/12 05:58:54;;;;;;;1.90;1.10;;;17.20;83.10;;;;;;5074711;28;20031;-41
2024/03/12 06:01:23;;;;;;;1.50;1.00;;;17.20;83.20;;;;;;5075408;28;20115;-42
2024/03/12 06:03:53;;;;;;;1.67;1.00;;;17.20;83.20;;;;;;5076596;28;20191;-43
2024/03/12 06:06:19;;;;;;;1.15;1.05;;;17.20;83.20;;;;;;5074872;28;20024;-43
2024/03/12 06:08:45;;;;;;;3.58;1.10;;;17.10;83.20;;;;;;5073789;28;20031;-44
2024/03/12 06:11:12;;;;;;;2.13;1.00;;;17.10;83.20;;;;;;5074864;28;20017;-44
2024/03/12 06:13:41;;;;;;;1.58;0.90;;;17.10;83.30;;;;;;5074425;28;20024;-43
2024/03/12 06:16:07;;;;;;;1.42;1.10;;;17.10;83.30;;;;;;5074795;28;20107;-43
2024/03/12 06:18:33;;;;;;;1.38;0.98;;;17.10;83.40;;;;;;5073565;28;20031;-44
2024/03/12 06:21:00;;;;;;;1.55;1.10;;;17.10;83.50;;;;;;5074495;28;20035;-43
2024/03/12 06:23:25;;;;;;;1.60;0.95;;;17.10;83.50;;;;;;5074216;28;20028;-43
2024/03/12 06:25:52;;;;;;;1.60;1.10;;;17.10;83.50;;;;;;5074708;28;20085;-43
2024/03/12 06:28:21;;;;;;;1.95;1.13;;;17.10;83.50;;;;;;5074571;28;20483;-42
2024/03/12 06:30:48;;;;;;;1.77;1.20;;;17.10;83.50;;;;;;5073935;28;20099;-43
2024/03/12 06:33:17;;;;;;;2.15;1.10;;;17.10;83.60;;;;;;5074791;28;20085;-42
2024/03/12 06:35:43;;;;;;;1.35;1.00;;;17.10;83.60;;;;;;5074083;28;20024;-44
2024/03/12 06:38:08;;;;;;;1.45;1.00;;;17.10;83.60;;;;;;5074876;28;20024;-44
2024/03/12 06:40:34;;;;;;;1.55;0.95;;;17.10;83.60;;;;;;5073837;28;20099;-43
2024/03/12 06:43:00;;;;;;;1.80;0.95;;;17.10;83.70;;;;;;5073343;28;20020;-44
2024/03/12 06:45:29;;;;;;;3.30;1.00;;;17.10;83.70;;;;;;5073262;28;20060;-43
2024/03/12 06:48:00;;;;;;;1.83;1.10;;;17.10;83.70;;;;;;5074461;28;20059;-44
2024/03/12 06:50:26;;;;;;;2.58;1.45;;;17.10;83.80;;;;;;5074171;28;20025;-43
2024/03/12 06:52:55;;;;;;;1.30;0.88;;;17.10;83.80;;;;;;5073384;28;20048;-44
2024/03/12 06:55:24;;;;;;;2.13;1.10;;;17.10;83.80;;;;;;5075879;28;20031;-44
2024/03/12 06:58:04;;;;;;;2.10;1.00;;;17.00;83.80;;;;;;5072862;28;20498;-42
2024/03/12 07:00:36;;;;;;;2.05;0.95;;;17.10;83.90;;;;;;5072784;28;20031;-43
2024/03/12 07:03:03;;;;;;;1.55;1.00;;;17.00;83.80;;;;;;5073463;28;20035;-43
2024/03/12 07:05:30;;;;;;;1.30;1.00;;;17.10;83.90;;;;;;5072664;28;20112;-42
2024/03/12 07:07:56;;;;;;;1.15;0.80;;;17.00;83.90;;;;;;5073507;28;20035;-43
2024/03/12 07:10:25;;;;;;;2.22;1.35;;;17.10;84.00;;;;;;5073016;28;20024;-41
2024/03/12 07:12:50;;;;;;;1.42;0.88;;;17.00;83.90;;;;;;5072775;28;20028;-43
2024/03/12 07:15:18;;;;;;;1.45;0.75;;;17.00;84.00;;;;;;5073461;28;20394;-44
2024/03/12 07:17:44;;;;;;;0.95;0.80;;;17.10;84.00;;;;;;5074585;28;20115;-44
2024/03/12 07:20:14;;;;;;;1.20;0.82;;;17.10;84.00;;;;;;5073606;28;20111;-43
2024/03/12 07:22:42;;;;;;;0.75;0.60;;;17.00;84.00;;;;;;5073406;28;20088;-44
2024/03/12 07:25:13;;;;;;;1.23;0.90;;;17.10;84.00;;;;;;5073817;28;20021;-43
2024/03/12 07:27:39;;;;;;;1.23;0.90;;;17.10;84.00;;;;;;5073363;28;20494;-43
2024/03/12 07:30:12;;;;;;;1.48;0.90;;;17.10;84.00;;;;;;5073257;28;20026;-43
2024/03/12 07:32:39;;;;;;;1.55;1.00;;;17.10;84.00;;;;;;5072245;28;20033;-43
2024/03/12 07:35:05;;;;;;;0.82;0.68;;;17.10;84.00;;;;;;5074377;28;20085;-44
2024/03/12 07:37:36;;;;;;;1.85;1.00;;;17.10;84.00;;;;;;5072999;28;20394;-44
2024/03/12 07:40:03;;;;;;;1.88;1.00;;;17.10;84.00;;;;;;5073025;28;20509;-44
2024/03/12 07:42:29;;;;;;;1.75;0.93;;;17.10;84.00;;;;;;5073742;28;20486;-43
2024/03/12 07:44:55;;;;;;;1.33;0.73;;;17.10;84.00;;;;;;5072367;28;20027;-42
2024/03/12 07:47:20;;;;;;;1.02;0.70;;;17.10;84.00;;;;;;5073504;28;20020;-44
2024/03/12 07:49:46;;;;;;;1.15;0.80;;;17.10;84.10;;;;;;5072929;28;20444;-42
2024/03/12 07:52:13;;;;;;;1.13;0.77;;;17.10;84.10;;;;;;5072281;28;20024;-43
2024/03/12 07:54:39;;;;;;;1.52;1.08;;;17.10;84.10;;;;;;5072083;28;20016;-43
2024/03/12 07:57:05;;;;;;;1.63;0.93;;;17.10;84.10;;;;;;5072525;28;20028;-44
2024/03/12 07:59:32;;;;;;;1.52;1.00;;;17.10;84.10;;;;;;5072746;28;20020;-43
2024/03/12 08:01:58;;;;;;;1.00;0.73;;;17.10;84.10;;;;;;5073379;28;20509;-42
2024/03/12 08:04:27;;;;;;;1.08;0.65;;;17.10;84.10;;;;;;5071696;28;20041;-44
2024/03/12 08:06:53;;;;;;;1.25;0.80;;;17.10;84.20;;;;;;5072474;28;20497;-43
2024/03/12 08:09:19;;;;;;;1.00;0.70;;;17.10;84.20;;;;;;5072760;28;20391;-42
2024/03/12 08:11:48;;;;;;;1.60;0.85;;;17.10;84.20;;;;;;5073263;28;20024;-44
2024/03/12 08:14:15;;;;;;;1.38;0.75;;;17.10;84.20;;;;;;5072616;28;20017;-44
2024/03/12 08:16:41;;;;;;;1.90;0.90;;;17.10;84.20;;;;;;5071046;28;20379;-43
2024/03/12 08:19:07;;;;;;;1.70;0.90;;;17.10;84.20;;;;;;5071188;28;20513;-43
2024/03/12 08:21:33;;;;;;;1.20;0.85;;;17.10;84.20;;;;;;5071403;28;20029;-43
2024/03/12 08:23:59;;;;;;;1.45;0.90;;;17.10;84.20;;;;;;5072076;28;20099;-44
2024/03/12 08:26:30;;;;;;;0.95;0.70;;;17.10;84.20;;;;;;5072141;28;20082;-44
2024/03/12 08:28:57;;;;;;;1.13;0.60;;;17.10;84.20;;;;;;5071835;28;20074;-43
2024/03/12 08:31:23;;;;;;;0.88;0.52;;;17.10;84.10;;;;;;5072636;28;20095;-43
2024/03/12 08:33:50;;;;;;;1.13;0.80;;;17.10;84.10;;;;;;5073270;28;20483;-43
2024/03/12 08:36:16;;;;;;;0.82;0.70;;;17.20;84.20;;;;;;5071563;28;20542;-43
2024/03/12 08:38:42;;;;;;;1.25;0.85;;;17.10;84.10;;;;;;5072466;28;20070;-42
2024/03/12 08:41:10;;;;;;;1.40;0.77;;;17.10;84.10;;;;;;5070483;28;20032;-44
2024/03/12 08:43:37;;;;;;;0.90;0.55;;;17.10;84.10;;;;;;5071572;28;20024;-43
2024/03/12 08:46:06;;;;;;;0.73;0.60;;;17.20;84.20;;;;;;5070164;28;20433;-44
2024/03/12 08:48:35;;;;;;;0.90;0.70;;;17.10;84.10;;;;;;5071690;28;20019;-43
2024/03/12 08:51:04;;;;;;;1.25;0.60;;;17.10;84.10;;;;;;5071497;28;20407;-44
2024/03/12 08:53:30;;;;;;;0.90;0.68;;;17.10;84.10;;;;;;5070991;28;20060;-44
2024/03/12 08:55:59;;;;;;;1.20;0.50;;;17.10;84.10;;;;;;5070875;28;20482;-41
2024/03/12 08:58:25;;;;;;;1.02;0.65;;;17.10;84.10;;;;;;5070838;28;20042;-43
2024/03/12 09:00:52;;;;;;;0.60;0.50;;;17.10;84.10;;;;;;5072299;28;20024;-43
2024/03/12 09:03:18;;;;;;;0.82;0.60;;;17.10;84.10;;;;;;5070864;28;20507;-43
2024/03/12 09:05:43;;;;;;;1.35;0.80;;;17.10;84.10;;;;;;5070822;28;20040;-43
2024/03/12 09:08:09;;;;;;;0.90;0.60;;;17.20;84.20;;;;;;5071667;28;20028;-44
2024/03/12 09:10:36;;;;;;;0.63;0.50;;;17.10;84.20;;;;;;5072200;28;20055;-44
2024/03/12 09:13:03;;;;;;;0.80;0.57;;;17.20;84.20;;;;;;5071234;28;20386;-43
2024/03/12 09:15:31;;;;;;;0.80;0.70;;;17.10;84.20;;;;;;5071903;28;20020;-44
2024/03/12 09:17:57;;;;;;;0.85;0.60;;;17.10;84.10;;;;;;5071219;28;20024;-42
2024/03/12 09:20:23;;;;;;;1.05;0.60;;;17.10;84.20;;;;;;5071304;28;20016;-44
2024/03/12 09:22:49;;;;;;;1.00;0.60;;;17.20;84.20;;;;;;5071177;28;20090;-43
2024/03/12 09:25:17;;;;;;;0.93;0.68;;;17.20;84.20;;;;;;5071661;28;20028;-43
2024/03/12 09:27:45;;;;;;;0.88;0.57;;;17.10;84.10;;;;;;5071541;28;20527;-44
2024/03/12 09:30:12;;;;;;;1.20;0.63;;;17.20;84.20;;;;;;5071872;28;20060;-44
2024/03/12 09:32:39;;;;;;;1.02;0.70;;;17.10;84.10;;;;;;5074587;28;20023;-44
2024/03/12 09:35:06;;;;;;;0.90;0.60;;;17.10;84.10;;;;;;5074459;28;20020;-43
2024/03/12 09:37:35;;;;;;;0.70;0.50;;;17.20;84.20;;;;;;5073832;28;20052;-44
2024/03/12 09:40:03;;;;;;;0.52;0.52;;;17.10;84.10;;;;;;5073249;28;20032;-43
2024/03/12 09:42:30;;;;;;;1.13;0.63;;;17.20;84.20;;;;;;5075152;28;20025;-43
2024/03/12 09:44:57;;;;;;;0.75;0.60;;;17.20;84.20;;;;;;5075398;28;20063;-43
2024/03/12 09:47:23;;;;;;;0.98;0.50;;;17.20;84.20;;;;;;5074409;28;20475;-44
2024/03/12 09:49:50;;;;;;;1.30;0.70;;;17.20;84.30;;;;;;5073841;28;20024;-44
2024/03/12 09:52:16;;;;;;;0.88;0.70;;;17.20;84.20;;;;;;5074709;28;20027;-43
2024/03/12 09:54:42;;;;;;;0.57;0.50;;;17.20;84.30;;;;;;5076237;28;20028;-44
2024/03/12 09:57:10;;;;;;;0.68;0.50;;;17.20;84.30;;;;;;5075682;28;20053;-42
2024/03/12 09:59:36;;;;;;;0.80;0.50;;;17.20;84.30;;;;;;5074910;28;20025;-43
2024/03/12 10:02:03;;;;;;;0.88;0.52;;;17.20;84.30;;;;;;5075389;28;20047;-42
2024/03/12 10:04:29;;;;;;;1.52;0.55;;;17.20;84.30;;;;;;5075590;28;20024;-44
2024/03/12 10:06:59;;;;;;;1.42;0.50;;;17.20;84.20;;;;;;5075075;28;20036;-43
2024/03/12 10:09:28;;;;;;;0.52;0.47;;;17.20;84.30;;;;;;5074400;28;20027;-44
2024/03/12 10:12:06;;;;;;;0.88;0.68;;;17.20;84.30;;;;;;5074590;28;20028;-43
2024/03/12 10:14:35;;;;;;;0.65;0.47;;;17.20;84.30;;;;;;5074063;28;20093;-43
2024/03/12 10:17:13;;;;;;;0.85;0.68;;;17.20;84.30;;;;;;5074598;28;20103;-43
2024/03/12 10:19:43;;;;;;;0.90;0.60;;;17.30;84.30;;;;;;5073537;28;20025;-44
2024/03/12 10:22:09;;;;;;;1.23;0.57;;;17.30;84.30;;;;;;5074845;28;20020;-43
2024/03/12 10:24:36;;;;;;;0.63;0.50;;;17.20;84.20;;;;;;5073960;28;20032;-43
2024/03/12 10:27:05;;;;;;;0.70;0.60;;;17.30;84.20;;;;;;5074865;28;20025;-43
2024/03/12 10:29:35;;;;;;;1.13;0.52;;;17.30;84.20;;;;;;5073987;28;20024;-43
2024/03/12 10:32:17;;;;;;;0.45;0.30;;;17.30;84.20;;;;;;5075228;28;20020;-43
2024/03/12 10:34:43;;;;;;;0.68;0.50;;;17.30;84.10;;;;;;5074922;28;20701;-43
2024/03/12 10:37:32;;;;;;;0.68;0.50;;;17.30;84.10;;;;;;5073742;28;20029;-43
2024/03/12 10:40:17;;;;;;;0.70;0.43;;;17.30;84.10;;;;;;5073612;28;20024;-43
2024/03/12 10:42:57;;;;;;;1.23;0.60;;;17.30;84.10;;;;;;5073577;28;20452;-43
2024/03/12 10:45:24;;;;;;;0.90;0.57;;;17.30;84.10;;;;;;5074280;28;20029;-43
2024/03/12 10:47:50;;;;;;;0.82;0.60;;;17.30;84.10;;;;;;5073150;28;20032;-43
2024/03/12 10:50:16;;;;;;;0.50;0.43;;;17.40;84.20;;;;;;5074236;28;20020;-44
2024/03/12 10:52:45;;;;;;;1.10;0.60;;;17.30;84.00;;;;;;5073106;28;20021;-44
2024/03/12 10:55:20;;;;;;;0.68;0.40;;;17.40;84.10;;;;;;5073747;28;20039;-43
2024/03/12 10:57:48;;;;;;;0.70;0.40;;;17.40;84.10;;;;;;5074274;28;20048;-43
2024/03/12 11:00:20;;;;;;;0.70;0.40;;;17.30;84.00;;;;;;5073953;28;20032;-43
2024/03/12 11:02:53;;;;;;;0.73;0.57;;;17.30;84.00;;;;;;5074104;28;20032;-43
2024/03/12 11:05:22;;;;;;;1.08;0.47;;;17.40;84.10;;;;;;5074660;28;20029;-43
2024/03/12 11:07:54;;;;;;;0.77;0.60;;;17.40;84.10;;;;;;5073414;28;20032;-40
2024/03/12 11:10:20;;;;;;;0.43;0.40;;;17.40;84.20;;;;;;5074368;28;20021;-43
2024/03/12 11:12:46;;;;;;;0.60;0.40;;;17.40;84.20;;;;;;5071236;28;20031;-43
2024/03/12 11:15:13;;;;;;;0.63;0.55;;;17.30;84.10;;;;;;5073299;28;20035;-44
2024/03/12 11:17:48;;;;;;;0.85;0.45;;;17.40;84.20;;;;;;5073035;28;20024;-43
2024/03/12 11:20:15;;;;;;;0.63;0.50;;;17.40;84.20;;;;;;5073852;28;20111;-43
2024/03/12 11:22:42;;;;;;;0.70;0.40;;;17.30;84.20;;;;;;5073281;28;20028;-44
2024/03/12 11:25:09;;;;;;;0.85;0.60;;;17.40;84.20;;;;;;5073068;28;20048;-44
2024/03/12 11:27:37;;;;;;;0.47;0.30;;;17.40;84.20;;;;;;5072968;28;20546;-43
2024/03/12 11:30:04;;;;;;;0.80;0.55;;;17.40;84.20;;;;;;5073257;28;20020;-41
2024/03/12 11:32:40;;;;;;;0.68;0.50;;;17.40;84.10;;;;;;5073743;28;20108;-43
2024/03/12 11:35:26;;;;;;;0.60;0.50;;;17.40;84.10;;;;;;5072700;28;20520;-42
2024/03/12 11:38:00;;;;;;;0.70;0.50;;;17.40;84.00;;;;;;5072458;28;20116;-42
2024/03/12 11:40:32;;;;;;;1.05;0.50;;;17.50;84.00;;;;;;5072297;28;20074;-44
2024/03/12 11:42:58;;;;;;;0.60;0.50;;;17.50;84.00;;;;;;5072135;28;20310;-44
2024/03/12 11:45:34;;;;;;;0.60;0.60;;;17.50;83.90;;;;;;5073404;28;20039;-43
2024/03/12 11:48:00;;;;;;;0.93;0.50;;;17.50;83.90;;;;;;5071715;28;20020;-43
2024/03/12 11:50:39;;;;;;;0.68;0.50;;;17.50;83.90;;;;;;5073166;28;20090;-43
2024/03/12 11:53:29;;;;;;;0.63;0.43;;;17.50;83.80;;;;;;5073361;28;20478;-41
2024/03/12 11:56:06;;;;;;;0.80;0.50;;;17.50;83.70;;;;;;5073813;28;20024;-43
2024/03/12 11:58:49;;;;;;;0.88;0.60;;;17.50;83.80;;;;;;5072784;28;20024;-43
2024/03/12 12:01:23;;;;;;;0.80;0.60;;;17.50;83.70;;;;;;5071564;28;20036;-43
2024/03/12 12:04:01;;;;;;;0.93;0.60;;;17.50;83.70;;;;;;5072515;28;20031;-44
2024/03/12 12:06:28;;;;;;;0.95;0.52;;;17.60;83.80;;;;;;5072947;28;20032;-43
2024/03/12 12:08:53;;;;;;;0.93;0.70;;;17.50;83.80;;;;;;5071425;28;20494;-43
2024/03/12 12:11:19;;;;;;;0.65;0.50;;;17.60;84.60;;;;;;5071147;28;20078;-43
2024/03/12 12:13:47;;;;;;;1.00;0.60;;;17.60;83.90;;;;;;5072010;28;20016;-44
2024/03/12 12:16:17;;;;;;;0.65;0.50;;;17.50;83.80;;;;;;5072494;28;20048;-43
2024/03/12 12:18:44;;;;;;;1.05;0.60;;;17.50;83.90;;;;;;5071367;28;20104;-43
2024/03/12 12:21:18;;;;;;;0.60;0.45;;;17.50;84.00;;;;;;5071170;28;20073;-43
2024/03/12 12:23:47;;;;;;;0.90;0.60;;;17.50;84.00;;;;;;5072501;28;20029;-43
2024/03/12 12:26:16;;;;;;;0.90;0.70;;;17.50;84.00;;;;;;5071144;28;20028;-44
2024/03/12 12:28:41;;;;;;;1.10;0.70;;;17.50;83.90;;;;;;5072413;28;20082;-44
2024/03/12 12:31:11;;;;;;;0.65;0.63;;;17.60;83.90;;;;;;5071545;28;20020;-43
2024/03/12 12:33:40;;;;;;;1.13;0.85;;;17.60;83.90;;;;;;5073029;28;20017;-42
2024/03/12 12:36:11;;;;;;;1.08;0.73;;;17.50;83.80;;;;;;5073563;28;20020;-43
2024/03/12 12:38:37;;;;;;;1.20;0.90;;;17.50;83.80;;;;;;5072571;28;20031;-43
2024/03/12 12:41:06;;;;;;;1.17;0.90;;;17.60;83.90;;;;;;5073898;28;20028;-44
2024/03/12 12:43:33;;;;;;;0.82;0.70;;;17.60;83.80;;;;;;5072917;28;20482;-44
2024/03/12 12:46:05;;;;;;;1.20;0.90;;;17.60;84.60;;;;;;5072438;28;20099;-44
2024/03/12 12:48:33;;;;;;;1.13;0.90;;;17.60;83.80;;;;;;5072562;28;20623;-44
2024/03/12 12:50:59;;;;;;;1.60;0.90;;;17.60;83.80;;;;;;5072050;28;20028;-44
2024/03/12 12:53:29;;;;;;;1.30;0.80;;;17.60;83.80;;;;;;5072658;28;20027;-43
2024/03/12 12:56:08;;;;;;;2.45;1.00;;;17.60;83.90;;;;;;5072732;28;20039;-44
2024/03/12 12:58:34;;;;;;;1.10;0.90;;;17.60;83.90;;;;;;5070539;28;20025;-44